sensor_id;sensor_type;location;lat;lon;timestamp;P1;durP1;ratioP1;P2;durP2;ratioP2
12585;SDS011;6358;50.760;0.282;2023-06-19T00:00:27;2.70;;;2.50;;
12585;SDS011;6358;50.760;0.282;2023-06-19T00:02:55;3.05;;;2.85;;
12585;SDS011;6358;50.760;0.282;2023-06-19T00:05:22;2.90;;;2.70;;
12585;SDS011;6358;50.760;0.282;2023-06-19T00:07:50;3.10;;;2.80;;
12585;SDS011;6358;50.760;0.282;2023-06-19T00:10:16;3.10;;;2.90;;
12585;SDS011;6358;50.760;0.282;2023-06-19T00:12:44;2.83;;;2.60;;
12585;SDS011;6358;50.760;0.282;2023-06-19T00:15:10;3.30;;;2.97;;
12585;SDS011;6358;50.760;0.282;2023-06-19T00:17:37;2.80;;;2.60;;
12585;SDS011;6358;50.760;0.282;2023-06-19T00:20:04;3.00;;;2.75;;
12585;SDS011;6358;50.760;0.282;2023-06-19T00:22:32;2.90;;;2.70;;
12585;SDS011;6358;50.760;0.282;2023-06-19T00:24:59;3.20;;;2.90;;
12585;SDS011;6358;50.760;0.282;2023-06-19T00:27:25;3.00;;;2.80;;
12585;SDS011;6358;50.760;0.282;2023-06-19T00:29:52;3.10;;;2.90;;
12585;SDS011;6358;50.760;0.282;2023-06-19T00:32:18;2.85;;;2.65;;
12585;SDS011;6358;50.760;0.282;2023-06-19T00:34:45;2.70;;;2.50;;
12585;SDS011;6358;50.760;0.282;2023-06-19T00:37:12;3.08;;;2.80;;
12585;SDS011;6358;50.760;0.282;2023-06-19T00:39:39;3.15;;;2.95;;
12585;SDS011;6358;50.760;0.282;2023-06-19T00:42:06;3.28;;;3.03;;
12585;SDS011;6358;50.760;0.282;2023-06-19T00:44:33;2.88;;;2.67;;
12585;SDS011;6358;50.760;0.282;2023-06-19T00:47:01;2.90;;;2.70;;
12585;SDS011;6358;50.760;0.282;2023-06-19T00:49:29;2.60;;;2.45;;
12585;SDS011;6358;50.760;0.282;2023-06-19T00:51:56;2.97;;;2.78;;
12585;SDS011;6358;50.760;0.282;2023-06-19T00:54:22;2.85;;;2.65;;
12585;SDS011;6358;50.760;0.282;2023-06-19T00:56:49;3.10;;;2.72;;
12585;SDS011;6358;50.760;0.282;2023-06-19T00:59:19;3.22;;;2.80;;
12585;SDS011;6358;50.760;0.282;2023-06-19T01:01:46;3.30;;;3.00;;
12585;SDS011;6358;50.760;0.282;2023-06-19T01:04:13;3.38;;;2.80;;
12585;SDS011;6358;50.760;0.282;2023-06-19T01:06:50;2.95;;;2.75;;
12585;SDS011;6358;50.760;0.282;2023-06-19T01:09:18;2.83;;;2.63;;
12585;SDS011;6358;50.760;0.282;2023-06-19T01:11:50;3.20;;;2.90;;
12585;SDS011;6358;50.760;0.282;2023-06-19T01:14:21;3.05;;;2.85;;
12585;SDS011;6358;50.760;0.282;2023-06-19T01:16:48;3.33;;;3.03;;
12585;SDS011;6358;50.760;0.282;2023-06-19T01:19:15;2.90;;;2.70;;
12585;SDS011;6358;50.760;0.282;2023-06-19T01:21:45;2.78;;;2.58;;
12585;SDS011;6358;50.760;0.282;2023-06-19T01:24:12;2.80;;;2.60;;
12585;SDS011;6358;50.760;0.282;2023-06-19T01:26:39;3.42;;;2.97;;
12585;SDS011;6358;50.760;0.282;2023-06-19T01:29:06;2.60;;;2.40;;
12585;SDS011;6358;50.760;0.282;2023-06-19T01:31:44;2.78;;;2.58;;
12585;SDS011;6358;50.760;0.282;2023-06-19T01:34:12;2.70;;;2.50;;
12585;SDS011;6358;50.760;0.282;2023-06-19T01:36:41;3.22;;;2.80;;
12585;SDS011;6358;50.760;0.282;2023-06-19T01:39:08;3.08;;;2.65;;
12585;SDS011;6358;50.760;0.282;2023-06-19T01:41:36;2.78;;;2.58;;
12585;SDS011;6358;50.760;0.282;2023-06-19T01:44:04;3.00;;;2.80;;
12585;SDS011;6358;50.760;0.282;2023-06-19T01:46:31;2.75;;;2.55;;
12585;SDS011;6358;50.760;0.282;2023-06-19T01:48:57;2.80;;;2.60;;
12585;SDS011;6358;50.760;0.282;2023-06-19T01:51:25;2.90;;;2.70;;
12585;SDS011;6358;50.760;0.282;2023-06-19T01:53:51;3.25;;;2.97;;
12585;SDS011;6358;50.760;0.282;2023-06-19T01:56:17;3.00;;;2.80;;
12585;SDS011;6358;50.760;0.282;2023-06-19T01:58:44;2.90;;;2.70;;
12585;SDS011;6358;50.760;0.282;2023-06-19T02:01:10;3.13;;;2.85;;
12585;SDS011;6358;50.760;0.282;2023-06-19T02:03:36;2.80;;;2.60;;
12585;SDS011;6358;50.760;0.282;2023-06-19T02:06:02;2.70;;;2.50;;
12585;SDS011;6358;50.760;0.282;2023-06-19T02:08:28;2.92;;;2.72;;
12585;SDS011;6358;50.760;0.282;2023-06-19T02:10:54;3.30;;;2.72;;
12585;SDS011;6358;50.760;0.282;2023-06-19T02:13:21;3.08;;;2.78;;
12585;SDS011;6358;50.760;0.282;2023-06-19T02:15:47;3.22;;;2.92;;
12585;SDS011;6358;50.760;0.282;2023-06-19T02:18:13;2.88;;;2.67;;
12585;SDS011;6358;50.760;0.282;2023-06-19T02:20:39;2.97;;;2.60;;
12585;SDS011;6358;50.760;0.282;2023-06-19T02:23:05;2.70;;;2.50;;
12585;SDS011;6358;50.760;0.282;2023-06-19T02:25:31;3.20;;;2.90;;
12585;SDS011;6358;50.760;0.282;2023-06-19T02:27:59;2.88;;;2.60;;
12585;SDS011;6358;50.760;0.282;2023-06-19T02:30:25;3.45;;;3.15;;
12585;SDS011;6358;50.760;0.282;2023-06-19T02:32:51;2.88;;;2.67;;
12585;SDS011;6358;50.760;0.282;2023-06-19T02:35:17;2.97;;;2.78;;
12585;SDS011;6358;50.760;0.282;2023-06-19T02:37:43;2.80;;;2.60;;
12585;SDS011;6358;50.760;0.282;2023-06-19T02:40:11;2.85;;;2.65;;
12585;SDS011;6358;50.760;0.282;2023-06-19T02:42:37;3.30;;;3.00;;
12585;SDS011;6358;50.760;0.282;2023-06-19T02:45:04;3.00;;;2.80;;
12585;SDS011;6358;50.760;0.282;2023-06-19T02:47:30;3.35;;;2.80;;
12585;SDS011;6358;50.760;0.282;2023-06-19T02:49:59;2.90;;;2.70;;
12585;SDS011;6358;50.760;0.282;2023-06-19T02:52:26;3.13;;;2.80;;
12585;SDS011;6358;50.760;0.282;2023-06-19T02:54:52;2.90;;;2.70;;
12585;SDS011;6358;50.760;0.282;2023-06-19T02:57:18;2.97;;;2.78;;
12585;SDS011;6358;50.760;0.282;2023-06-19T02:59:44;2.80;;;2.60;;
12585;SDS011;6358;50.760;0.282;2023-06-19T03:02:11;3.38;;;2.80;;
12585;SDS011;6358;50.760;0.282;2023-06-19T03:04:37;3.40;;;3.10;;
12585;SDS011;6358;50.760;0.282;2023-06-19T03:07:03;3.08;;;2.88;;
12585;SDS011;6358;50.760;0.282;2023-06-19T03:09:29;2.88;;;2.55;;
12585;SDS011;6358;50.760;0.282;2023-06-19T03:11:56;3.70;;;2.80;;
12585;SDS011;6358;50.760;0.282;2023-06-19T03:14:22;3.85;;;2.92;;
12585;SDS011;6358;50.760;0.282;2023-06-19T03:16:48;3.10;;;2.90;;
12585;SDS011;6358;50.760;0.282;2023-06-19T03:19:14;2.92;;;2.70;;
12585;SDS011;6358;50.760;0.282;2023-06-19T03:21:40;2.75;;;2.55;;
12585;SDS011;6358;50.760;0.282;2023-06-19T03:24:07;3.15;;;2.90;;
12585;SDS011;6358;50.760;0.282;2023-06-19T03:26:33;3.20;;;2.90;;
12585;SDS011;6358;50.760;0.282;2023-06-19T03:28:59;3.20;;;2.90;;
12585;SDS011;6358;50.760;0.282;2023-06-19T03:31:25;3.20;;;3.00;;
12585;SDS011;6358;50.760;0.282;2023-06-19T03:33:52;3.30;;;3.00;;
12585;SDS011;6358;50.760;0.282;2023-06-19T03:36:18;2.95;;;2.65;;
12585;SDS011;6358;50.760;0.282;2023-06-19T03:38:44;3.45;;;3.00;;
12585;SDS011;6358;50.760;0.282;2023-06-19T03:41:10;3.15;;;2.95;;
12585;SDS011;6358;50.760;0.282;2023-06-19T03:43:37;3.08;;;2.78;;
12585;SDS011;6358;50.760;0.282;2023-06-19T03:46:04;3.17;;;2.97;;
12585;SDS011;6358;50.760;0.282;2023-06-19T03:48:30;3.10;;;2.80;;
12585;SDS011;6358;50.760;0.282;2023-06-19T03:50:56;3.38;;;3.15;;
12585;SDS011;6358;50.760;0.282;2023-06-19T03:53:22;3.85;;;2.72;;
12585;SDS011;6358;50.760;0.282;2023-06-19T03:55:48;3.10;;;2.80;;
12585;SDS011;6358;50.760;0.282;2023-06-19T03:58:15;3.33;;;2.95;;
12585;SDS011;6358;50.760;0.282;2023-06-19T04:00:41;3.13;;;2.88;;
12585;SDS011;6358;50.760;0.282;2023-06-19T04:03:07;3.33;;;3.03;;
12585;SDS011;6358;50.760;0.282;2023-06-19T04:05:34;3.30;;;3.00;;
12585;SDS011;6358;50.760;0.282;2023-06-19T04:08:01;2.97;;;2.78;;
12585;SDS011;6358;50.760;0.282;2023-06-19T04:10:27;2.92;;;2.72;;
12585;SDS011;6358;50.760;0.282;2023-06-19T04:12:53;3.50;;;3.20;;
12585;SDS011;6358;50.760;0.282;2023-06-19T04:15:20;3.13;;;2.85;;
12585;SDS011;6358;50.760;0.282;2023-06-19T04:17:47;3.28;;;2.60;;
12585;SDS011;6358;50.760;0.282;2023-06-19T04:20:13;3.70;;;2.90;;
12585;SDS011;6358;50.760;0.282;2023-06-19T04:22:42;3.60;;;3.30;;
12585;SDS011;6358;50.760;0.282;2023-06-19T04:25:09;3.15;;;2.88;;
12585;SDS011;6358;50.760;0.282;2023-06-19T04:27:36;3.17;;;2.85;;
12585;SDS011;6358;50.760;0.282;2023-06-19T04:30:02;3.30;;;3.00;;
12585;SDS011;6358;50.760;0.282;2023-06-19T04:32:29;3.50;;;3.05;;
12585;SDS011;6358;50.760;0.282;2023-06-19T04:34:56;3.15;;;2.85;;
12585;SDS011;6358;50.760;0.282;2023-06-19T04:37:22;3.05;;;2.75;;
12585;SDS011;6358;50.760;0.282;2023-06-19T04:39:48;3.00;;;2.65;;
12585;SDS011;6358;50.760;0.282;2023-06-19T04:42:16;3.10;;;2.80;;
12585;SDS011;6358;50.760;0.282;2023-06-19T04:44:46;4.07;;;3.15;;
12585;SDS011;6358;50.760;0.282;2023-06-19T04:47:12;3.05;;;2.78;;
12585;SDS011;6358;50.760;0.282;2023-06-19T04:49:39;3.72;;;3.17;;
12585;SDS011;6358;50.760;0.282;2023-06-19T04:52:06;3.20;;;2.90;;
12585;SDS011;6358;50.760;0.282;2023-06-19T04:54:33;3.00;;;2.80;;
12585;SDS011;6358;50.760;0.282;2023-06-19T04:57:00;3.33;;;3.03;;
12585;SDS011;6358;50.760;0.282;2023-06-19T04:59:27;2.97;;;2.78;;
12585;SDS011;6358;50.760;0.282;2023-06-19T05:01:56;3.35;;;2.92;;
12585;SDS011;6358;50.760;0.282;2023-06-19T05:04:22;3.20;;;3.00;;
12585;SDS011;6358;50.760;0.282;2023-06-19T05:06:50;3.20;;;2.95;;
12585;SDS011;6358;50.760;0.282;2023-06-19T05:09:16;3.25;;;2.95;;
12585;SDS011;6358;50.760;0.282;2023-06-19T05:11:43;3.25;;;2.95;;
12585;SDS011;6358;50.760;0.282;2023-06-19T05:14:09;3.35;;;2.83;;
12585;SDS011;6358;50.760;0.282;2023-06-19T05:16:36;3.50;;;3.20;;
12585;SDS011;6358;50.760;0.282;2023-06-19T05:19:04;3.38;;;3.08;;
12585;SDS011;6358;50.760;0.282;2023-06-19T05:21:30;3.05;;;2.85;;
12585;SDS011;6358;50.760;0.282;2023-06-19T05:23:57;3.45;;;3.15;;
12585;SDS011;6358;50.760;0.282;2023-06-19T05:26:23;3.55;;;3.00;;
12585;SDS011;6358;50.760;0.282;2023-06-19T05:28:51;3.42;;;3.13;;
12585;SDS011;6358;50.760;0.282;2023-06-19T05:31:18;3.00;;;2.80;;
12585;SDS011;6358;50.760;0.282;2023-06-19T05:33:45;3.45;;;2.97;;
12585;SDS011;6358;50.760;0.282;2023-06-19T05:36:12;3.30;;;3.10;;
12585;SDS011;6358;50.760;0.282;2023-06-19T05:38:39;3.85;;;3.10;;
12585;SDS011;6358;50.760;0.282;2023-06-19T05:41:05;3.60;;;3.30;;
12585;SDS011;6358;50.760;0.282;2023-06-19T05:43:35;4.70;;;3.45;;
12585;SDS011;6358;50.760;0.282;2023-06-19T05:46:01;4.07;;;3.20;;
12585;SDS011;6358;50.760;0.282;2023-06-19T05:48:38;3.80;;;3.25;;
12585;SDS011;6358;50.760;0.282;2023-06-19T05:51:05;3.70;;;3.28;;
12585;SDS011;6358;50.760;0.282;2023-06-19T05:53:33;3.47;;;3.05;;
12585;SDS011;6358;50.760;0.282;2023-06-19T05:56:00;3.22;;;2.92;;
12585;SDS011;6358;50.760;0.282;2023-06-19T05:58:26;4.18;;;3.08;;
12585;SDS011;6358;50.760;0.282;2023-06-19T06:00:53;3.63;;;3.25;;
12585;SDS011;6358;50.760;0.282;2023-06-19T06:03:25;3.40;;;3.10;;
12585;SDS011;6358;50.760;0.282;2023-06-19T06:05:53;3.20;;;3.00;;
12585;SDS011;6358;50.760;0.282;2023-06-19T06:08:19;3.38;;;3.17;;
12585;SDS011;6358;50.760;0.282;2023-06-19T06:10:46;3.83;;;3.45;;
12585;SDS011;6358;50.760;0.282;2023-06-19T06:13:12;3.53;;;3.22;;
12585;SDS011;6358;50.760;0.282;2023-06-19T06:15:39;3.13;;;2.83;;
12585;SDS011;6358;50.760;0.282;2023-06-19T06:18:05;3.58;;;3.25;;
12585;SDS011;6358;50.760;0.282;2023-06-19T06:20:32;3.45;;;3.15;;
12585;SDS011;6358;50.760;0.282;2023-06-19T06:22:58;3.80;;;3.40;;
12585;SDS011;6358;50.760;0.282;2023-06-19T06:25:25;4.13;;;3.30;;
12585;SDS011;6358;50.760;0.282;2023-06-19T06:27:52;3.40;;;3.10;;
12585;SDS011;6358;50.760;0.282;2023-06-19T06:30:19;3.55;;;3.25;;
12585;SDS011;6358;50.760;0.282;2023-06-19T06:32:45;4.03;;;3.28;;
12585;SDS011;6358;50.760;0.282;2023-06-19T06:35:12;4.32;;;3.92;;
12585;SDS011;6358;50.760;0.282;2023-06-19T06:37:40;3.90;;;3.50;;
12585;SDS011;6358;50.760;0.282;2023-06-19T06:40:07;3.83;;;3.33;;
12585;SDS011;6358;50.760;0.282;2023-06-19T06:42:38;4.57;;;3.70;;
12585;SDS011;6358;50.760;0.282;2023-06-19T06:45:05;4.60;;;3.78;;
12585;SDS011;6358;50.760;0.282;2023-06-19T06:47:36;3.60;;;3.30;;
12585;SDS011;6358;50.760;0.282;2023-06-19T06:50:03;4.40;;;3.47;;
12585;SDS011;6358;50.760;0.282;2023-06-19T06:52:29;7.32;;;4.05;;
12585;SDS011;6358;50.760;0.282;2023-06-19T06:54:57;4.18;;;3.67;;
12585;SDS011;6358;50.760;0.282;2023-06-19T06:57:24;3.78;;;3.40;;
12585;SDS011;6358;50.760;0.282;2023-06-19T06:59:50;4.60;;;3.65;;
12585;SDS011;6358;50.760;0.282;2023-06-19T07:02:17;4.07;;;3.40;;
12585;SDS011;6358;50.760;0.282;2023-06-19T07:04:43;3.85;;;3.55;;
12585;SDS011;6358;50.760;0.282;2023-06-19T07:07:11;4.82;;;3.40;;
12585;SDS011;6358;50.760;0.282;2023-06-19T07:09:37;3.58;;;3.28;;
12585;SDS011;6358;50.760;0.282;2023-06-19T07:12:04;4.05;;;3.75;;
12585;SDS011;6358;50.760;0.282;2023-06-19T07:14:35;4.03;;;3.63;;
12585;SDS011;6358;50.760;0.282;2023-06-19T07:17:02;4.25;;;3.63;;
12585;SDS011;6358;50.760;0.282;2023-06-19T07:19:32;5.32;;;3.47;;
12585;SDS011;6358;50.760;0.282;2023-06-19T07:21:59;4.10;;;3.70;;
12585;SDS011;6358;50.760;0.282;2023-06-19T07:24:27;4.78;;;4.10;;
12585;SDS011;6358;50.760;0.282;2023-06-19T07:26:53;4.68;;;4.28;;
12585;SDS011;6358;50.760;0.282;2023-06-19T07:29:23;4.85;;;4.20;;
12585;SDS011;6358;50.760;0.282;2023-06-19T07:31:52;5.80;;;4.80;;
12585;SDS011;6358;50.760;0.282;2023-06-19T07:34:19;5.03;;;4.00;;
12585;SDS011;6358;50.760;0.282;2023-06-19T07:36:47;4.45;;;3.88;;
12585;SDS011;6358;50.760;0.282;2023-06-19T07:39:14;4.75;;;4.35;;
12585;SDS011;6358;50.760;0.282;2023-06-19T07:41:41;4.38;;;3.97;;
12585;SDS011;6358;50.760;0.282;2023-06-19T07:44:07;5.05;;;4.18;;
12585;SDS011;6358;50.760;0.282;2023-06-19T07:46:34;4.63;;;4.22;;
12585;SDS011;6358;50.760;0.282;2023-06-19T07:49:02;4.60;;;4.20;;
12585;SDS011;6358;50.760;0.282;2023-06-19T07:51:29;4.70;;;4.30;;
12585;SDS011;6358;50.760;0.282;2023-06-19T07:53:55;5.00;;;4.55;;
12585;SDS011;6358;50.760;0.282;2023-06-19T07:56:21;4.57;;;4.13;;
12585;SDS011;6358;50.760;0.282;2023-06-19T07:58:48;4.70;;;4.30;;
12585;SDS011;6358;50.760;0.282;2023-06-19T08:01:14;5.55;;;4.75;;
12585;SDS011;6358;50.760;0.282;2023-06-19T08:03:41;5.70;;;4.90;;
12585;SDS011;6358;50.760;0.282;2023-06-19T08:06:07;6.22;;;5.50;;
12585;SDS011;6358;50.760;0.282;2023-06-19T08:08:34;5.80;;;5.30;;
12585;SDS011;6358;50.760;0.282;2023-06-19T08:11:01;6.43;;;5.82;;
12585;SDS011;6358;50.760;0.282;2023-06-19T08:13:28;7.68;;;6.35;;
12585;SDS011;6358;50.760;0.282;2023-06-19T08:15:54;7.80;;;6.18;;
12585;SDS011;6358;50.760;0.282;2023-06-19T08:18:21;6.95;;;6.30;;
12585;SDS011;6358;50.760;0.282;2023-06-19T08:20:50;7.05;;;6.35;;
12585;SDS011;6358;50.760;0.282;2023-06-19T08:23:16;7.63;;;6.70;;
12585;SDS011;6358;50.760;0.282;2023-06-19T08:25:43;7.85;;;7.05;;
12585;SDS011;6358;50.760;0.282;2023-06-19T08:28:09;7.07;;;6.47;;
12585;SDS011;6358;50.760;0.282;2023-06-19T08:30:37;8.00;;;7.20;;
12585;SDS011;6358;50.760;0.282;2023-06-19T08:33:03;7.18;;;6.57;;
12585;SDS011;6358;50.760;0.282;2023-06-19T08:35:30;6.93;;;6.22;;
12585;SDS011;6358;50.760;0.282;2023-06-19T08:37:56;7.22;;;6.50;;
12585;SDS011;6358;50.760;0.282;2023-06-19T08:40:23;7.07;;;6.45;;
12585;SDS011;6358;50.760;0.282;2023-06-19T08:42:49;6.70;;;6.10;;
12585;SDS011;6358;50.760;0.282;2023-06-19T08:45:25;7.32;;;6.50;;
12585;SDS011;6358;50.760;0.282;2023-06-19T08:47:57;7.97;;;6.65;;
12585;SDS011;6358;50.760;0.282;2023-06-19T08:50:25;7.40;;;6.57;;
12585;SDS011;6358;50.760;0.282;2023-06-19T08:52:54;6.78;;;6.07;;
12585;SDS011;6358;50.760;0.282;2023-06-19T08:55:21;7.13;;;6.40;;
12585;SDS011;6358;50.760;0.282;2023-06-19T08:57:48;6.70;;;6.07;;
12585;SDS011;6358;50.760;0.282;2023-06-19T09:00:27;8.02;;;6.13;;
12585;SDS011;6358;50.760;0.282;2023-06-19T09:03:01;6.95;;;6.32;;
12585;SDS011;6358;50.760;0.282;2023-06-19T09:05:27;7.63;;;6.18;;
12585;SDS011;6358;50.760;0.282;2023-06-19T09:07:55;6.88;;;6.28;;
12585;SDS011;6358;50.760;0.282;2023-06-19T09:10:21;6.75;;;6.15;;
12585;SDS011;6358;50.760;0.282;2023-06-19T09:12:55;7.50;;;6.80;;
12585;SDS011;6358;50.760;0.282;2023-06-19T09:15:26;7.50;;;6.80;;
12585;SDS011;6358;50.760;0.282;2023-06-19T09:18:03;13.18;;;7.10;;
12585;SDS011;6358;50.760;0.282;2023-06-19T09:20:29;7.32;;;6.72;;
12585;SDS011;6358;50.760;0.282;2023-06-19T09:22:56;7.50;;;6.90;;
12585;SDS011;6358;50.760;0.282;2023-06-19T09:25:22;6.88;;;6.28;;
12585;SDS011;6358;50.760;0.282;2023-06-19T09:27:50;7.70;;;6.22;;
12585;SDS011;6358;50.760;0.282;2023-06-19T09:30:16;7.05;;;6.45;;
12585;SDS011;6358;50.760;0.282;2023-06-19T09:32:46;10.13;;;7.93;;
12585;SDS011;6358;50.760;0.282;2023-06-19T09:35:12;14.95;;;8.48;;
12585;SDS011;6358;50.760;0.282;2023-06-19T09:37:39;8.38;;;7.50;;
12585;SDS011;6358;50.760;0.282;2023-06-19T09:40:06;8.65;;;7.85;;
12585;SDS011;6358;50.760;0.282;2023-06-19T09:42:41;10.48;;;8.68;;
12585;SDS011;6358;50.760;0.282;2023-06-19T09:45:17;10.38;;;9.25;;
12585;SDS011;6358;50.760;0.282;2023-06-19T09:47:45;11.32;;;9.90;;
12585;SDS011;6358;50.760;0.282;2023-06-19T09:50:13;11.73;;;10.15;;
12585;SDS011;6358;50.760;0.282;2023-06-19T09:55:15;44.15;;;22.13;;
12585;SDS011;6358;50.760;0.282;2023-06-19T09:57:43;42.67;;;24.75;;
12585;SDS011;6358;50.760;0.282;2023-06-19T10:00:10;30.90;;;19.45;;
12585;SDS011;6358;50.760;0.282;2023-06-19T10:02:47;29.58;;;18.80;;
12585;SDS011;6358;50.760;0.282;2023-06-19T10:05:14;36.97;;;23.25;;
12585;SDS011;6358;50.760;0.282;2023-06-19T10:07:41;36.30;;;23.13;;
12585;SDS011;6358;50.760;0.282;2023-06-19T10:10:08;40.47;;;25.30;;
12585;SDS011;6358;50.760;0.282;2023-06-19T10:15:17;28.92;;;19.23;;
12585;SDS011;6358;50.760;0.282;2023-06-19T10:17:45;23.92;;;16.67;;
12585;SDS011;6358;50.760;0.282;2023-06-19T10:20:20;20.73;;;13.80;;
12585;SDS011;6358;50.760;0.282;2023-06-19T10:22:56;18.98;;;13.15;;
12585;SDS011;6358;50.760;0.282;2023-06-19T10:25:27;16.95;;;12.45;;
12585;SDS011;6358;50.760;0.282;2023-06-19T10:27:54;15.85;;;12.13;;
12585;SDS011;6358;50.760;0.282;2023-06-19T10:30:20;15.93;;;12.27;;
12585;SDS011;6358;50.760;0.282;2023-06-19T10:32:46;14.82;;;12.50;;
12585;SDS011;6358;50.760;0.282;2023-06-19T10:35:13;15.48;;;12.05;;
12585;SDS011;6358;50.760;0.282;2023-06-19T10:37:39;18.98;;;12.90;;
12585;SDS011;6358;50.760;0.282;2023-06-19T10:40:06;17.20;;;12.75;;
12585;SDS011;6358;50.760;0.282;2023-06-19T10:42:34;15.68;;;12.00;;
12585;SDS011;6358;50.760;0.282;2023-06-19T10:45:04;16.25;;;11.60;;
12585;SDS011;6358;50.760;0.282;2023-06-19T10:47:50;18.13;;;13.45;;
12585;SDS011;6358;50.760;0.282;2023-06-19T10:50:16;19.45;;;13.52;;
12585;SDS011;6358;50.760;0.282;2023-06-19T10:52:43;18.70;;;12.80;;
12585;SDS011;6358;50.760;0.282;2023-06-19T10:55:10;20.20;;;14.10;;
12585;SDS011;6358;50.760;0.282;2023-06-19T10:57:37;21.17;;;13.00;;
12585;SDS011;6358;50.760;0.282;2023-06-19T11:00:04;18.40;;;12.90;;
12585;SDS011;6358;50.760;0.282;2023-06-19T11:02:38;20.20;;;12.98;;
12585;SDS011;6358;50.760;0.282;2023-06-19T11:05:06;19.98;;;13.13;;
12585;SDS011;6358;50.760;0.282;2023-06-19T11:07:33;18.63;;;13.05;;
12585;SDS011;6358;50.760;0.282;2023-06-19T11:09:59;17.80;;;11.90;;
12585;SDS011;6358;50.760;0.282;2023-06-19T11:12:25;16.38;;;12.02;;
12585;SDS011;6358;50.760;0.282;2023-06-19T11:14:51;15.18;;;11.13;;
12585;SDS011;6358;50.760;0.282;2023-06-19T11:17:17;16.00;;;10.60;;
12585;SDS011;6358;50.760;0.282;2023-06-19T11:19:46;15.32;;;10.77;;
12585;SDS011;6358;50.760;0.282;2023-06-19T11:22:12;14.00;;;10.68;;
12585;SDS011;6358;50.760;0.282;2023-06-19T11:24:47;14.07;;;10.20;;
12585;SDS011;6358;50.760;0.282;2023-06-19T11:27:21;13.07;;;10.90;;
12585;SDS011;6358;50.760;0.282;2023-06-19T11:29:55;13.55;;;11.07;;
12585;SDS011;6358;50.760;0.282;2023-06-19T11:32:23;15.80;;;11.20;;
12585;SDS011;6358;50.760;0.282;2023-06-19T11:34:50;13.27;;;10.20;;
12585;SDS011;6358;50.760;0.282;2023-06-19T11:37:19;14.32;;;10.95;;
12585;SDS011;6358;50.760;0.282;2023-06-19T11:39:46;15.20;;;10.77;;
12585;SDS011;6358;50.760;0.282;2023-06-19T11:42:13;12.65;;;10.18;;
12585;SDS011;6358;50.760;0.282;2023-06-19T11:45:00;14.30;;;10.27;;
12585;SDS011;6358;50.760;0.282;2023-06-19T11:47:35;12.88;;;9.98;;
12585;SDS011;6358;50.760;0.282;2023-06-19T11:50:03;13.00;;;9.95;;
12585;SDS011;6358;50.760;0.282;2023-06-19T11:52:29;11.68;;;10.02;;
12585;SDS011;6358;50.760;0.282;2023-06-19T11:54:55;14.23;;;10.95;;
12585;SDS011;6358;50.760;0.282;2023-06-19T11:57:22;13.40;;;10.30;;
12585;SDS011;6358;50.760;0.282;2023-06-19T11:59:48;12.30;;;10.20;;
12585;SDS011;6358;50.760;0.282;2023-06-19T12:02:14;17.50;;;12.38;;
12585;SDS011;6358;50.760;0.282;2023-06-19T12:04:40;15.07;;;11.57;;
12585;SDS011;6358;50.760;0.282;2023-06-19T12:07:06;13.18;;;11.57;;
12585;SDS011;6358;50.760;0.282;2023-06-19T12:09:32;14.32;;;11.02;;
12585;SDS011;6358;50.760;0.282;2023-06-19T12:11:59;15.02;;;11.20;;
12585;SDS011;6358;50.760;0.282;2023-06-19T12:14:25;15.15;;;11.43;;
12585;SDS011;6358;50.760;0.282;2023-06-19T12:16:52;16.73;;;11.95;;
12585;SDS011;6358;50.760;0.282;2023-06-19T12:19:18;15.20;;;11.13;;
12585;SDS011;6358;50.760;0.282;2023-06-19T12:21:44;11.63;;;10.20;;
12585;SDS011;6358;50.760;0.282;2023-06-19T12:24:10;13.68;;;10.75;;
12585;SDS011;6358;50.760;0.282;2023-06-19T12:26:36;15.32;;;11.63;;
12585;SDS011;6358;50.760;0.282;2023-06-19T12:29:03;14.02;;;10.88;;
12585;SDS011;6358;50.760;0.282;2023-06-19T12:31:29;13.48;;;10.43;;
12585;SDS011;6358;50.760;0.282;2023-06-19T12:33:55;13.98;;;10.73;;
12585;SDS011;6358;50.760;0.282;2023-06-19T12:36:21;13.55;;;10.63;;
12585;SDS011;6358;50.760;0.282;2023-06-19T12:38:47;13.63;;;10.13;;
12585;SDS011;6358;50.760;0.282;2023-06-19T12:41:14;13.15;;;9.73;;
12585;SDS011;6358;50.760;0.282;2023-06-19T12:43:40;12.25;;;9.52;;
12585;SDS011;6358;50.760;0.282;2023-06-19T12:46:06;12.82;;;9.52;;
12585;SDS011;6358;50.760;0.282;2023-06-19T12:48:32;12.70;;;9.85;;
12585;SDS011;6358;50.760;0.282;2023-06-19T12:50:58;13.13;;;10.25;;
12585;SDS011;6358;50.760;0.282;2023-06-19T12:53:25;11.60;;;9.63;;
12585;SDS011;6358;50.760;0.282;2023-06-19T12:55:57;11.35;;;8.63;;
12585;SDS011;6358;50.760;0.282;2023-06-19T12:58:24;11.15;;;8.93;;
12585;SDS011;6358;50.760;0.282;2023-06-19T13:00:50;11.55;;;8.90;;
12585;SDS011;6358;50.760;0.282;2023-06-19T13:03:16;10.82;;;8.10;;
12585;SDS011;6358;50.760;0.282;2023-06-19T13:05:44;12.57;;;8.50;;
12585;SDS011;6358;50.760;0.282;2023-06-19T13:08:10;10.40;;;8.57;;
12585;SDS011;6358;50.760;0.282;2023-06-19T13:10:36;12.10;;;8.60;;
12585;SDS011;6358;50.760;0.282;2023-06-19T13:13:03;10.35;;;8.18;;
12585;SDS011;6358;50.760;0.282;2023-06-19T13:15:30;9.80;;;8.55;;
12585;SDS011;6358;50.760;0.282;2023-06-19T13:17:58;9.77;;;7.75;;
12585;SDS011;6358;50.760;0.282;2023-06-19T13:20:25;9.70;;;7.80;;
12585;SDS011;6358;50.760;0.282;2023-06-19T13:22:51;8.38;;;7.30;;
12585;SDS011;6358;50.760;0.282;2023-06-19T13:25:18;8.73;;;7.32;;
12585;SDS011;6358;50.760;0.282;2023-06-19T13:27:44;10.27;;;7.28;;
12585;SDS011;6358;50.760;0.282;2023-06-19T13:30:10;8.50;;;7.60;;
12585;SDS011;6358;50.760;0.282;2023-06-19T13:32:36;9.55;;;7.00;;
12585;SDS011;6358;50.760;0.282;2023-06-19T13:35:03;10.02;;;7.15;;
12585;SDS011;6358;50.760;0.282;2023-06-19T13:37:30;7.00;;;6.30;;
12585;SDS011;6358;50.760;0.282;2023-06-19T13:39:56;7.93;;;7.13;;
12585;SDS011;6358;50.760;0.282;2023-06-19T13:42:22;8.73;;;6.88;;
12585;SDS011;6358;50.760;0.282;2023-06-19T13:44:48;10.13;;;7.00;;
12585;SDS011;6358;50.760;0.282;2023-06-19T13:47:14;7.68;;;6.38;;
12585;SDS011;6358;50.760;0.282;2023-06-19T13:49:40;8.50;;;6.60;;
12585;SDS011;6358;50.760;0.282;2023-06-19T13:52:06;7.15;;;6.45;;
12585;SDS011;6358;50.760;0.282;2023-06-19T13:54:32;8.68;;;6.47;;
12585;SDS011;6358;50.760;0.282;2023-06-19T13:56:59;9.32;;;6.45;;
12585;SDS011;6358;50.760;0.282;2023-06-19T13:59:25;7.65;;;6.07;;
12585;SDS011;6358;50.760;0.282;2023-06-19T14:01:51;7.00;;;6.25;;
12585;SDS011;6358;50.760;0.282;2023-06-19T14:04:17;8.23;;;7.00;;
12585;SDS011;6358;50.760;0.282;2023-06-19T14:06:43;8.20;;;7.13;;
12585;SDS011;6358;50.760;0.282;2023-06-19T14:09:09;8.65;;;6.40;;
12585;SDS011;6358;50.760;0.282;2023-06-19T14:11:35;7.97;;;7.13;;
12585;SDS011;6358;50.760;0.282;2023-06-19T14:14:01;7.97;;;7.18;;
12585;SDS011;6358;50.760;0.282;2023-06-19T14:16:28;9.75;;;7.72;;
12585;SDS011;6358;50.760;0.282;2023-06-19T14:18:54;8.90;;;7.40;;
12585;SDS011;6358;50.760;0.282;2023-06-19T14:21:20;8.85;;;7.53;;
12585;SDS011;6358;50.760;0.282;2023-06-19T14:23:46;7.95;;;7.15;;
12585;SDS011;6358;50.760;0.282;2023-06-19T14:26:12;10.35;;;7.10;;
12585;SDS011;6358;50.760;0.282;2023-06-19T14:28:39;8.57;;;6.78;;
12585;SDS011;6358;50.760;0.282;2023-06-19T14:31:05;9.75;;;7.28;;
12585;SDS011;6358;50.760;0.282;2023-06-19T14:33:31;7.32;;;6.32;;
12585;SDS011;6358;50.760;0.282;2023-06-19T14:35:58;8.98;;;7.13;;
12585;SDS011;6358;50.760;0.282;2023-06-19T14:38:25;7.10;;;6.00;;
12585;SDS011;6358;50.760;0.282;2023-06-19T14:40:56;9.00;;;5.82;;
12585;SDS011;6358;50.760;0.282;2023-06-19T14:43:23;6.32;;;5.65;;
12585;SDS011;6358;50.760;0.282;2023-06-19T14:45:49;6.68;;;5.53;;
12585;SDS011;6358;50.760;0.282;2023-06-19T14:48:15;11.70;;;5.45;;
12585;SDS011;6358;50.760;0.282;2023-06-19T14:50:41;5.60;;;5.03;;
12585;SDS011;6358;50.760;0.282;2023-06-19T14:53:07;6.80;;;5.32;;
12585;SDS011;6358;50.760;0.282;2023-06-19T14:55:33;6.57;;;5.30;;
12585;SDS011;6358;50.760;0.282;2023-06-19T14:57:59;5.75;;;4.95;;
12585;SDS011;6358;50.760;0.282;2023-06-19T15:00:25;7.82;;;5.28;;